Time;durP1;ratioP1;P1;durP2;ratioP2;P2;SDS_P1;SDS_P2;PMS_P1;PMS_P2;Temp;Humidity;BMP_temperature;BMP_pressure;BME280_temperature;BME280_humidity;BME280_pressure;Samples;Min_cycle;Max_cycle;Signal;HPM_P1;HPM_P2
2022/11/16 00:01:02;;;;;;;;;;;20.00;71.50;;;;;;5068479;28;19928;-74
2022/11/16 00:03:29;;;;;;;;;;;20.20;70.60;;;;;;5070941;28;19955;-74
2022/11/16 00:06:00;;;;;;;;;;;20.30;70.10;;;;;;5070541;28;19912;-73
2022/11/16 00:08:32;;;;;;;;;;;20.40;69.50;;;;;;5071473;28;19921;-73
2022/11/16 00:11:09;;;;;;;;;;;20.50;69.80;;;;;;5069926;28;20027;-74
2022/11/16 00:13:36;;;;;;;;;;;20.70;67.50;;;;;;5069999;28;19924;-74
2022/11/16 00:16:03;;;;;;;;;;;20.70;67.90;;;;;;5069941;28;19912;-74
2022/11/16 00:18:30;;;;;;;;;;;20.70;68.90;;;;;;5065781;28;19916;-74
2022/11/16 00:20:57;;;;;;;;;;;20.70;68.40;;;;;;5070578;28;20061;-74
2022/11/16 00:23:24;;;;;;;;;;;20.80;68.80;;;;;;5070085;28;19966;-74
2022/11/16 00:25:52;;;;;;;;;;;20.80;68.80;;;;;;5069811;28;19916;-73
2022/11/16 00:28:18;;;;;;;;;;;20.90;69.40;;;;;;5070705;28;19987;-73
2022/11/16 00:30:45;;;;;;;;;;;21.10;68.10;;;;;;5062865;28;19916;-75
2022/11/16 00:33:14;;;;;;;;;;;21.30;69.10;;;;;;5068876;28;19913;-74
2022/11/16 00:35:41;;;;;;;;;;;21.50;68.60;;;;;;5062900;28;20362;-73
2022/11/16 00:38:08;;;;;;;;;;;21.70;69.50;;;;;;5070718;28;19913;-74
2022/11/16 00:40:34;;;;;;;;;;;21.80;69.00;;;;;;5070373;28;20007;-74
2022/11/16 00:43:01;;;;;;;;;;;21.90;67.80;;;;;;5071188;28;19963;-74
2022/11/16 00:45:28;;;;;;;;;;;21.70;67.30;;;;;;5070874;28;19913;-74
2022/11/16 00:47:54;;;;;;;;;;;21.70;66.80;;;;;;5071663;28;20310;-73
2022/11/16 00:50:21;;;;;;;;;;;21.50;65.80;;;;;;5062581;28;19959;-73
2022/11/16 00:52:48;;;;;;;;;;;21.50;66.70;;;;;;5070760;28;19912;-74
2022/11/16 00:55:14;;;;;;;;;;;21.40;67.20;;;;;;5059626;28;20340;-75
2022/11/16 00:57:41;;;;;;;;;;;21.40;67.70;;;;;;5074211;28;19912;-74
2022/11/16 01:00:08;;;;;;;;;;;21.50;68.70;;;;;;5061002;28;19916;-74
2022/11/16 01:02:35;;;;;;;;;;;21.60;68.60;;;;;;5074477;28;19927;-74
2022/11/16 01:05:01;;;;;;;;;;;21.70;68.30;;;;;;5071409;28;19913;-74
2022/11/16 01:07:28;;;;;;;;;;;21.70;68.50;;;;;;5068468;28;19916;-74
2022/11/16 01:09:54;;;;;;;;;;;21.80;67.80;;;;;;5034152;28;19921;-75
2022/11/16 01:12:21;;;;;;;;;;;21.60;66.70;;;;;;5035079;28;19913;-74
2022/11/16 01:14:48;;;;;;;;;;;21.50;66.30;;;;;;5034021;28;20003;-76
2022/11/16 01:17:14;;;;;;;;;;;21.30;66.40;;;;;;5033677;28;19967;-73
2022/11/16 01:19:41;;;;;;;;;;;21.10;66.80;;;;;;5035505;28;19921;-75
2022/11/16 01:22:08;;;;;;;;;;;20.90;67.40;;;;;;5035517;28;19917;-75
2022/11/16 01:24:35;;;;;;;;;;;20.80;66.30;;;;;;5029117;28;19917;-73
2022/11/16 01:27:01;;;;;;;;;;;20.70;66.20;;;;;;5024700;28;20028;-72
2022/11/16 01:29:29;;;;;;;;;;;20.70;67.70;;;;;;5031022;28;19917;-73
2022/11/16 01:31:56;;;;;;;;;;;20.70;67.00;;;;;;5030380;28;20360;-74
2022/11/16 01:34:23;;;;;;;;;;;21.20;66.30;;;;;;5024022;28;20544;-73
2022/11/16 01:36:49;;;;;;;;;;;22.10;68.50;;;;;;5030922;28;19917;-74
2022/11/16 01:39:16;;;;;;;;;;;22.60;66.80;;;;;;5031749;28;19923;-75
2022/11/16 01:41:43;;;;;;;;;;;22.90;68.20;;;;;;5028823;28;20344;-72
2022/11/16 01:44:28;;;;;;;;;;;23.20;64.70;;;;;;5030039;28;19941;-74
2022/11/16 01:46:55;;;;;;;;;;;23.10;65.30;;;;;;5028397;28;19920;-73
2022/11/16 01:49:23;;;;;;;;;;;23.30;67.30;;;;;;5031352;28;19960;-75
2022/11/16 01:51:53;;;;;;;;;;;23.00;65.00;;;;;;5033039;28;19967;-73
2022/11/16 01:54:20;;;;;;;;;;;22.60;65.90;;;;;;5031959;28;19993;-74
2022/11/16 01:56:47;;;;;;;;;;;22.30;66.40;;;;;;5031778;28;19972;-75
2022/11/16 01:59:14;;;;;;;;;;;22.10;66.90;;;;;;5032806;28;19920;-72
2022/11/16 02:01:41;;;;;;;;;;;22.00;66.90;;;;;;5031025;28;19922;-71
2022/11/16 02:04:10;;;;;;;;;;;21.80;67.60;;;;;;5032182;28;19964;-70
2022/11/16 02:06:43;;;;;;;;;;;21.80;68.10;;;;;;5015879;28;19914;-72
2022/11/16 02:12:26;;;;;;;;;;;22.20;65.90;;;;;;5068057;28;19919;-74
2022/11/16 02:14:53;;;;;;;;;;;22.70;67.30;;;;;;5063998;28;19966;-74
2022/11/16 02:17:19;;;;;;;;;;;23.60;65.80;;;;;;5070122;28;19920;-74
2022/11/16 02:20:04;;;;;;;;;;;24.10;61.60;;;;;;5063907;28;19916;-74
2022/11/16 02:22:46;;;;;;;;;;;23.60;64.20;;;;;;5072071;28;20347;-72
2022/11/16 02:25:15;;;;;;;;;;;23.00;64.30;;;;;;5068634;28;19916;-73
2022/11/16 02:27:48;;;;;;;;;;;22.60;63.80;;;;;;5064801;28;19920;-72
2022/11/16 02:30:15;;;;;;;;;;;22.00;66.20;;;;;;5063354;28;19936;-72
2022/11/16 02:32:47;;;;;;;;;;;21.00;71.20;;;;;;5070561;28;19948;-74
2022/11/16 02:35:40;;;;;;;;;;;20.30;74.10;;;;;;5063580;28;19919;-74
2022/11/16 02:38:27;;;;;;;;;;;19.70;75.60;;;;;;5056382;28;19913;-75
2022/11/16 02:40:58;;;;;;;;;;;19.10;76.30;;;;;;5058998;28;19960;-74
2022/11/16 02:43:30;;;;;;;;;;;18.70;77.80;;;;;;5062431;28;20490;-73
2022/11/16 02:45:59;;;;;;;;;;;18.30;79.80;;;;;;5061258;28;22688;-72
2022/11/16 02:48:28;;;;;;;;;;;17.90;80.50;;;;;;5070071;28;19978;-73
2022/11/16 02:50:55;;;;;;;;;;;17.80;80.40;;;;;;5062794;28;19912;-73
2022/11/16 02:53:24;;;;;;;;;;;17.80;81.30;;;;;;5063736;28;19921;-73
2022/11/16 02:55:50;;;;;;;;;;;17.90;82.50;;;;;;5064369;28;19912;-72
2022/11/16 02:58:22;;;;;;;;;;;17.70;83.10;;;;;;5061430;28;20003;-70
2022/11/16 03:00:51;;;;;;;;;;;17.60;82.90;;;;;;5061788;28;19920;-73
2022/11/16 03:03:21;;;;;;;;;;;17.50;82.20;;;;;;5065409;28;19997;-72
2022/11/16 03:05:50;;;;;;;;;;;17.40;82.30;;;;;;5062960;28;19920;-73
2022/11/16 03:08:29;;;;;;;;;;;17.40;82.70;;;;;;5063563;28;20363;-73
2022/11/16 03:12:15;;;;;;;;;;;17.40;83.40;;;;;;5062709;28;19912;-73
2022/11/16 03:14:14;;;;;;;;;;;17.30;82.20;;;;;;5047939;28;19912;-73
2022/11/16 03:16:42;;;;;;;;;;;17.10;81.20;;;;;;5062588;28;19921;-74
2022/11/16 03:19:13;;;;;;;;;;;17.00;84.00;;;;;;5065699;28;19916;-73
2022/11/16 03:21:51;;;;;;;;;;;16.90;84.00;;;;;;5061364;28;20006;-73
2022/11/16 03:24:21;;;;;;;;;;;16.90;84.70;;;;;;5065358;28;20455;-73
2022/11/16 03:26:55;;;;;;;;;;;17.10;84.20;;;;;;5064458;28;19916;-72
2022/11/16 03:29:28;;;;;;;;;;;17.40;81.10;;;;;;5065095;28;19913;-73
2022/11/16 03:31:58;;;;;;;;;;;17.70;80.70;;;;;;5067529;28;19921;-73
2022/11/16 03:34:26;;;;;;;;;;;18.10;80.00;;;;;;5064050;28;20473;-73
2022/11/16 03:36:54;;;;;;;;;;;19.00;76.90;;;;;;5064517;28;19924;-74
2022/11/16 03:39:27;;;;;;;;;;;20.00;78.10;;;;;;5058841;28;20019;-74
2022/11/16 03:41:55;;;;;;;;;;;20.50;75.10;;;;;;5041470;28;20628;-73
2022/11/16 03:44:21;;;;;;;;;;;20.50;73.70;;;;;;5061572;28;19934;-74
2022/11/16 03:46:48;;;;;;;;;;;20.40;74.20;;;;;;5064092;28;19923;-73
2022/11/16 03:49:15;;;;;;;;;;;20.20;76.00;;;;;;5067462;28;19916;-75
2022/11/16 03:51:42;;;;;;;;;;;19.90;74.50;;;;;;5059374;28;19923;-74
2022/11/16 03:54:08;;;;;;;;;;;19.70;75.30;;;;;;5059191;28;20019;-74
2022/11/16 03:56:35;;;;;;;;;;;20.20;76.80;;;;;;5062893;28;20346;-73
2022/11/16 03:59:02;;;;;;;;;;;20.70;72.40;;;;;;5063884;28;19923;-74
2022/11/16 04:01:28;;;;;;;;;;;21.20;72.20;;;;;;5061787;28;19920;-76
2022/11/16 04:03:55;;;;;;;;;;;21.40;69.10;;;;;;5060726;28;19928;-74
2022/11/16 04:25:45;;;;;;;;;;;20.60;71.30;;;;;;5061043;28;19958;-74
2022/11/16 04:28:13;;;;;;;;;;;20.60;69.80;;;;;;5069815;28;19913;-74
2022/11/16 04:39:04;;;;;;;;;;;21.90;69.50;;;;;;5061791;28;19923;-73
2022/11/16 04:44:15;;;;;;;;;;;21.50;67.40;;;;;;5059409;28;20393;-72
2022/11/16 04:49:27;;;;;;;;;;;21.30;68.40;;;;;;5059121;28;19967;-74
2022/11/16 04:51:53;;;;;;;;;;;21.40;69.40;;;;;;5066473;28;20378;-73
2022/11/16 04:54:20;;;;;;;;;;;21.50;69.90;;;;;;5065775;28;20289;-75
2022/11/16 04:56:49;;;;;;;;;;;22.00;70.70;;;;;;5066007;28;20271;-74
2022/11/16 04:59:16;;;;;;;;;;;22.40;70.60;;;;;;5060133;28;19955;-74
2022/11/16 05:04:27;;;;;;;;;;;22.40;66.40;;;;;;5067295;28;19949;-73
2022/11/16 05:06:54;;;;;;;;;;;21.80;67.60;;;;;;5067958;28;19999;-73
2022/11/16 05:09:21;;;;;;;;;;;20.90;68.40;;;;;;5067642;28;20011;-74
2022/11/16 05:11:47;;;;;;;;;;;20.00;68.10;;;;;;5069218;28;20019;-75
2022/11/16 05:14:14;;;;;;;;;;;19.30;69.00;;;;;;5064369;28;20179;-73
2022/11/16 05:16:41;;;;;;;;;;;18.60;70.10;;;;;;5059115;28;19921;-73
2022/11/16 05:21:52;;;;;;;;;;;18.10;71.50;;;;;;5063404;28;19922;-72
2022/11/16 05:24:33;;;;;;;;;;;17.50;72.90;;;;;;5066457;28;19931;-72
2022/11/16 05:27:04;;;;;;;;;;;17.30;73.60;;;;;;5065103;28;19918;-74
2022/11/16 05:29:31;;;;;;;;;;;16.90;73.80;;;;;;5062134;28;19913;-74
2022/11/16 05:32:00;;;;;;;;;;;16.70;74.20;;;;;;5062215;28;19917;-72
2022/11/16 05:34:27;;;;;;;;;;;16.50;74.50;;;;;;5065252;28;20001;-73
2022/11/16 05:36:56;;;;;;;;;;;16.50;74.30;;;;;;5065587;28;19980;-76
2022/11/16 05:39:23;;;;;;;;;;;16.60;77.50;;;;;;5063562;28;19963;-75
2022/11/16 05:41:50;;;;;;;;;;;16.70;81.00;;;;;;5062618;28;19966;-75
2022/11/16 05:44:17;;;;;;;;;;;17.00;81.50;;;;;;5068722;28;19920;-74
2022/11/16 05:46:44;;;;;;;;;;;17.40;79.50;;;;;;5069403;28;20347;-75
2022/11/16 05:49:12;;;;;;;;;;;17.90;76.30;;;;;;5064610;28;19974;-73
2022/11/16 05:51:39;;;;;;;;;;;18.30;74.10;;;;;;5066481;28;19978;-73
2022/11/16 05:54:06;;;;;;;;;;;18.60;74.10;;;;;;5068929;28;19913;-75
2022/11/16 05:56:33;;;;;;;;;;;18.90;72.80;;;;;;5067347;28;19921;-74
2022/11/16 05:59:01;;;;;;;;;;;19.30;71.40;;;;;;5063257;28;20412;-75
2022/11/16 06:01:28;;;;;;;;;;;19.50;70.60;;;;;;5045560;28;19923;-73
2022/11/16 06:03:55;;;;;;;;;;;19.50;70.80;;;;;;5064626;28;19935;-75
2022/11/16 06:06:22;;;;;;;;;;;19.50;70.70;;;;;;5063597;28;19920;-76
2022/11/16 06:08:48;;;;;;;;;;;19.60;70.20;;;;;;5065828;28;20182;-75
2022/11/16 06:11:15;;;;;;;;;;;19.80;70.00;;;;;;5063277;28;20003;-74
2022/11/16 06:13:42;;;;;;;;;;;19.80;68.80;;;;;;5061980;28;19921;-74
2022/11/16 06:16:08;;;;;;;;;;;19.80;69.50;;;;;;5057616;28;19959;-74
2022/11/16 06:18:39;;;;;;;;;;;19.90;69.20;;;;;;5067643;28;19917;-76
2022/11/16 06:21:06;;;;;;;;;;;19.80;66.70;;;;;;5070177;28;19981;-75
2022/11/16 06:23:33;;;;;;;;;;;19.70;67.60;;;;;;5071731;28;19921;-75
2022/11/16 06:26:00;;;;;;;;;;;19.60;68.40;;;;;;5068467;28;19923;-74
2022/11/16 06:28:26;;;;;;;;;;;19.50;68.40;;;;;;5066010;28;19913;-74
2022/11/16 06:30:53;;;;;;;;;;;19.30;68.40;;;;;;5070821;28;20007;-74
2022/11/16 06:33:20;;;;;;;;;;;19.20;67.90;;;;;;5068039;28;20602;-73
2022/11/16 06:35:46;;;;;;;;;;;19.30;68.60;;;;;;5071551;28;19912;-74
2022/11/16 06:38:19;;;;;;;;;;;19.40;69.90;;;;;;5067007;28;19917;-75
2022/11/16 06:40:49;;;;;;;;;;;19.50;69.90;;;;;;5065043;28;20390;-74
2022/11/16 06:43:16;;;;;;;;;;;19.60;70.20;;;;;;5068137;28;19920;-73
2022/11/16 06:45:42;;;;;;;;;;;19.60;71.00;;;;;;5070424;28;19919;-73
2022/11/16 06:48:09;;;;;;;;;;;19.70;68.90;;;;;;5066654;28;19916;-74
2022/11/16 06:50:36;;;;;;;;;;;19.70;70.60;;;;;;5062941;28;19926;-76
2022/11/16 06:53:02;;;;;;;;;;;19.70;69.50;;;;;;5064253;28;19958;-75
2022/11/16 06:55:29;;;;;;;;;;;19.70;69.00;;;;;;5058056;28;19916;-75
2022/11/16 06:57:56;;;;;;;;;;;19.70;67.40;;;;;;5064303;28;20019;-74
2022/11/16 07:00:22;;;;;;;;;;;19.70;68.40;;;;;;5067214;28;20473;-74
2022/11/16 07:02:49;;;;;;;;;;;19.60;67.60;;;;;;5064168;28;19924;-73
2022/11/16 07:05:16;;;;;;;;;;;19.60;67.50;;;;;;5062363;28;20389;-74
2022/11/16 07:07:42;;;;;;;;;;;19.60;67.40;;;;;;5061667;28;19975;-74
2022/11/16 07:10:09;;;;;;;;;;;19.60;67.70;;;;;;5055291;28;20393;-74
2022/11/16 07:12:36;;;;;;;;;;;19.50;68.10;;;;;;5065497;28;19927;-74
2022/11/16 07:15:03;;;;;;;;;;;19.50;68.00;;;;;;5067858;28;19920;-74
2022/11/16 07:17:29;;;;;;;;;;;19.50;69.60;;;;;;5071159;28;19916;-74
2022/11/16 07:19:56;;;;;;;;;;;19.40;69.40;;;;;;5070963;28;19909;-73
2022/11/16 07:22:24;;;;;;;;;;;19.40;75.50;;;;;;5065458;28;19916;-73
2022/11/16 07:24:51;;;;;;;;;;;19.20;78.50;;;;;;5070694;28;19920;-73
2022/11/16 07:27:17;;;;;;;;;;;18.90;79.80;;;;;;5065913;28;19912;-74
2022/11/16 07:29:44;;;;;;;;;;;18.60;81.20;;;;;;5057936;28;19993;-73
2022/11/16 07:32:10;;;;;;;;;;;18.40;81.40;;;;;;5068704;28;20431;-75
2022/11/16 07:34:37;;;;;;;;;;;18.10;83.50;;;;;;5051101;28;20393;-73
2022/11/16 07:37:04;;;;;;;;;;;17.90;85.50;;;;;;5057470;28;20329;-73
2022/11/16 07:39:30;;;;;;;;;;;17.80;85.20;;;;;;5069017;28;19970;-74
2022/11/16 07:41:57;;;;;;;;;;;17.80;86.00;;;;;;5070883;28;19912;-72
2022/11/16 07:44:24;;;;;;;;;;;17.60;86.20;;;;;;5075571;28;19924;-73
2022/11/16 07:46:50;;;;;;;;;;;17.50;86.80;;;;;;5061566;28;19913;-75
2022/11/16 07:49:18;;;;;;;;;;;17.30;85.80;;;;;;5065099;28;19912;-74
2022/11/16 07:51:45;;;;;;;;;;;17.20;85.90;;;;;;5064816;28;19969;-73
2022/11/16 07:54:12;;;;;;;;;;;16.90;86.60;;;;;;5072216;28;19915;-74
2022/11/16 07:56:39;;;;;;;;;;;16.80;87.40;;;;;;5067376;28;20019;-74
2022/11/16 07:59:06;;;;;;;;;;;16.70;87.90;;;;;;5067208;28;20010;-75
2022/11/16 08:01:32;;;;;;;;;;;16.70;87.90;;;;;;5061144;28;19954;-75
2022/11/16 08:04:02;;;;;;;;;;;16.80;87.70;;;;;;5049226;28;20031;-76
2022/11/16 08:06:30;;;;;;;;;;;16.70;88.00;;;;;;5068941;28;20035;-74
2022/11/16 08:08:57;;;;;;;;;;;16.70;88.10;;;;;;5069150;28;19928;-74
2022/11/16 08:11:23;;;;;;;;;;;16.70;87.90;;;;;;5068613;28;20003;-75
2022/11/16 08:13:50;;;;;;;;;;;16.70;88.30;;;;;;5054384;28;19912;-73
2022/11/16 08:16:18;;;;;;;;;;;16.60;89.60;;;;;;5068206;28;19913;-73
2022/11/16 08:18:45;;;;;;;;;;;16.60;89.20;;;;;;5069960;28;19913;-77
2022/11/16 08:21:14;;;;;;;;;;;16.50;88.60;;;;;;5072743;28;19923;-75
2022/11/16 08:23:40;;;;;;;;;;;16.50;89.00;;;;;;5062805;28;20264;-75
2022/11/16 08:26:09;;;;;;;;;;;16.40;88.80;;;;;;5069007;28;19952;-74
2022/11/16 08:28:36;;;;;;;;;;;16.40;89.00;;;;;;5048623;28;19920;-75
2022/11/16 08:31:07;;;;;;;;;;;16.40;88.70;;;;;;5062696;28;19916;-74
2022/11/16 08:33:34;;;;;;;;;;;16.30;88.60;;;;;;5065718;28;19917;-75
2022/11/16 08:36:08;;;;;;;;;;;16.20;88.20;;;;;;5068948;28;20318;-74
2022/11/16 08:38:35;;;;;;;;;;;16.20;88.70;;;;;;5056617;28;19913;-75
2022/11/16 08:41:01;;;;;;;;;;;16.10;89.40;;;;;;5069524;28;19913;-75
2022/11/16 08:43:29;;;;;;;;;;;16.00;90.20;;;;;;5061809;28;19931;-75
2022/11/16 08:45:57;;;;;;;;;;;15.90;91.20;;;;;;5062763;28;20390;-74
2022/11/16 08:48:23;;;;;;;;;;;15.70;91.50;;;;;;5066940;28;19913;-75
2022/11/16 08:50:50;;;;;;;;;;;15.70;91.80;;;;;;5069971;28;20019;-75
2022/11/16 08:53:17;;;;;;;;;;;15.60;91.90;;;;;;5062496;28;19912;-74
2022/11/16 08:55:43;;;;;;;;;;;15.50;91.70;;;;;;5064226;28;19920;-75
2022/11/16 08:58:10;;;;;;;;;;;15.40;92.20;;;;;;5047430;28;20860;-75
2022/11/16 09:00:37;;;;;;;;;;;15.30;93.00;;;;;;5069693;28;19912;-75
2022/11/16 09:03:03;;;;;;;;;;;15.20;94.00;;;;;;5061872;28;19927;-75
2022/11/16 09:05:30;;;;;;;;;;;14.90;94.30;;;;;;5064666;28;19926;-74
2022/11/16 09:07:57;;;;;;;;;;;14.70;94.70;;;;;;5064550;28;19920;-75
2022/11/16 09:10:24;;;;;;;;;;;14.60;95.20;;;;;;5072099;28;19923;-74
2022/11/16 09:12:51;;;;;;;;;;;14.50;94.80;;;;;;5066931;28;19912;-75
2022/11/16 09:15:19;;;;;;;;;;;14.40;94.00;;;;;;5072304;28;20026;-75
2022/11/16 09:17:46;;;;;;;;;;;14.40;93.70;;;;;;5067185;28;19912;-74
2022/11/16 09:20:13;;;;;;;;;;;14.40;93.40;;;;;;5065627;28;19912;-76
2022/11/16 09:22:39;;;;;;;;;;;14.40;93.10;;;;;;5063181;28;20460;-76
2022/11/16 09:25:07;;;;;;;;;;;14.40;92.70;;;;;;5075238;28;19916;-75
2022/11/16 09:27:33;;;;;;;;;;;14.50;92.80;;;;;;5064486;28;19912;-76
2022/11/16 09:30:00;;;;;;;;;;;14.50;92.90;;;;;;5063269;28;19917;-76
2022/11/16 09:32:27;;;;;;;;;;;14.60;92.90;;;;;;5067751;28;19928;-76
2022/11/16 09:34:53;;;;;;;;;;;14.60;92.70;;;;;;5068363;28;19912;-74
2022/11/16 09:37:20;;;;;;;;;;;14.60;92.90;;;;;;5069999;28;19974;-76
2022/11/16 09:39:46;;;;;;;;;;;14.60;92.50;;;;;;5067826;28;19916;-76
2022/11/16 09:42:28;;;;;;;;;;;14.60;92.70;;;;;;5059695;28;19978;-76
2022/11/16 09:45:03;;;;;;;;;;;14.50;92.60;;;;;;5065793;28;19920;-76
2022/11/16 09:47:40;;;;;;;;;;;14.40;92.50;;;;;;5070432;28;19913;-75
2022/11/16 09:50:07;;;;;;;;;;;14.30;92.50;;;;;;5071690;28;19922;-75
2022/11/16 09:52:38;;;;;;;;;;;14.20;93.20;;;;;;5065435;28;19920;-76
2022/11/16 09:55:16;;;;;;;;;;;14.10;93.50;;;;;;5072142;28;19916;-74
2022/11/16 09:57:43;;;;;;;;;;;14.00;93.20;;;;;;5071656;28;19913;-75
2022/11/16 10:00:21;;;;;;;;;;;14.00;93.40;;;;;;5060959;28;19912;-75
2022/11/16 10:02:55;;;;;;;;;;;14.00;93.90;;;;;;5062649;28;20502;-75
2022/11/16 10:05:27;;;;;;;;;;;14.10;94.00;;;;;;5072152;28;19966;-75
2022/11/16 10:08:19;;;;;;;;;;;14.10;94.00;;;;;;5072491;28;21006;-75
2022/11/16 10:10:54;;;;;;;;;;;14.10;94.40;;;;;;5069944;28;20290;-76
2022/11/16 10:13:33;;;;;;;;;;;14.20;94.20;;;;;;5071207;28;20003;-75
2022/11/16 10:16:10;;;;;;;;;;;14.20;94.30;;;;;;5065783;28;19960;-76
2022/11/16 10:18:36;;;;;;;;;;;14.20;94.30;;;;;;5073179;28;19913;-73
2022/11/16 10:21:23;;;;;;;;;;;14.20;94.10;;;;;;5062199;28;19917;-76
2022/11/16 10:23:59;;;;;;;;;;;14.20;94.30;;;;;;5066410;28;20267;-76
2022/11/16 10:26:26;;;;;;;;;;;14.20;94.40;;;;;;5072259;28;19938;-76
2022/11/16 10:28:53;;;;;;;;;;;14.10;94.50;;;;;;5071107;28;20449;-76
2022/11/16 10:31:50;;;;;;;;;;;14.10;94.80;;;;;;5068382;28;19919;-76
2022/11/16 10:34:22;;;;;;;;;;;14.10;95.00;;;;;;5067529;28;19919;-74
2022/11/16 10:36:48;;;;;;;;;;;14.20;95.30;;;;;;5067516;28;20324;-76
2022/11/16 10:39:16;;;;;;;;;;;14.20;95.20;;;;;;5071674;28;20123;-74
2022/11/16 10:41:46;;;;;;;;;;;14.10;95.30;;;;;;5063318;28;19944;-74
2022/11/16 10:44:17;;;;;;;;;;;14.10;95.50;;;;;;5070220;28;20023;-74
2022/11/16 10:46:47;;;;;;;;;;;14.00;95.50;;;;;;5070352;28;19919;-76
2022/11/16 10:49:32;;;;;;;;;;;14.00;95.70;;;;;;5072436;28;19916;-75
2022/11/16 10:51:59;;;;;;;;;;;14.10;95.70;;;;;;5063701;28;20375;-74
2022/11/16 10:54:25;;;;;;;;;;;14.10;95.70;;;;;;5066874;28;19920;-76
2022/11/16 10:56:58;;;;;;;;;;;14.20;95.80;;;;;;5071158;28;19913;-75
2022/11/16 10:59:37;;;;;;;;;;;14.20;95.50;;;;;;5067934;28;19908;-75
2022/11/16 11:02:23;;;;;;;;;;;14.20;95.40;;;;;;5059598;28;20012;-75
2022/11/16 11:05:05;;;;;;;;;;;14.20;95.20;;;;;;5070155;28;19930;-76
2022/11/16 11:07:38;;;;;;;;;;;14.10;95.50;;;;;;5069152;28;20007;-76
2022/11/16 11:10:22;;;;;;;;;;;14.10;95.40;;;;;;5068773;28;19928;-76
2022/11/16 11:13:02;;;;;;;;;;;14.10;95.50;;;;;;5066970;28;19940;-76
2022/11/16 11:15:29;;;;;;;;;;;13.90;95.50;;;;;;5065262;28;19940;-75
2022/11/16 11:18:12;;;;;;;;;;;13.80;95.60;;;;;;5068898;28;19913;-76
2022/11/16 11:20:40;;;;;;;;;;;13.70;95.90;;;;;;5066432;28;19952;-76
2022/11/16 11:23:17;;;;;;;;;;;13.60;96.10;;;;;;5070676;28;19928;-74
2022/11/16 11:25:55;;;;;;;;;;;13.50;96.40;;;;;;5062052;28;20393;-75
2022/11/16 11:28:30;;;;;;;;;;;13.50;96.30;;;;;;5067020;28;19971;-76
2022/11/16 11:31:08;;;;;;;;;;;13.50;95.50;;;;;;5064150;28;20019;-76
2022/11/16 11:33:36;;;;;;;;;;;13.50;95.90;;;;;;5067837;28;19917;-75
2022/11/16 11:36:08;;;;;;;;;;;13.60;96.60;;;;;;5068955;28;20386;-75
2022/11/16 11:38:53;;;;;;;;;;;13.60;96.60;;;;;;5063838;28;19943;-74
2022/11/16 11:41:20;;;;;;;;;;;13.60;96.90;;;;;;5055632;28;19947;-75
2022/11/16 11:44:06;;;;;;;;;;;13.70;97.30;;;;;;5052660;28;20446;-74
2022/11/16 11:46:36;;;;;;;;;;;13.60;97.40;;;;;;5054118;28;19970;-75
2022/11/16 11:49:12;;;;;;;;;;;13.60;97.80;;;;;;5068924;28;19925;-76
2022/11/16 11:51:40;;;;;;;;;;;13.50;98.00;;;;;;5064569;28;20009;-75
2022/11/16 11:54:14;;;;;;;;;;;13.50;97.80;;;;;;5057237;28;19912;-74
2022/11/16 11:56:41;;;;;;;;;;;13.40;97.70;;;;;;5067460;28;19919;-76
2022/11/16 11:59:10;;;;;;;;;;;13.30;98.00;;;;;;5067526;28;20325;-75
2022/11/16 12:01:49;;;;;;;;;;;13.20;98.20;;;;;;5068972;28;19952;-75
2022/11/16 12:04:16;;;;;;;;;;;13.30;98.50;;;;;;5062975;28;20007;-76
2022/11/16 12:06:47;;;;;;;;;;;13.30;98.70;;;;;;5068239;28;19912;-74
2022/11/16 12:09:18;;;;;;;;;;;13.40;98.50;;;;;;5060260;28;20461;-74
2022/11/16 12:12:05;;;;;;;;;;;13.40;98.40;;;;;;5062950;28;19916;-73
2022/11/16 12:14:35;;;;;;;;;;;13.40;97.90;;;;;;5062788;28;19913;-74
2022/11/16 12:17:05;;;;;;;;;;;13.50;98.00;;;;;;5068886;28;19931;-75
2022/11/16 12:19:32;;;;;;;;;;;13.50;97.80;;;;;;5049522;28;19928;-75
2022/11/16 12:21:58;;;;;;;;;;;13.50;97.50;;;;;;5061281;28;20336;-77
2022/11/16 12:24:25;;;;;;;;;;;13.50;97.30;;;;;;5060870;28;19925;-75
2022/11/16 12:27:09;;;;;;;;;;;13.50;96.80;;;;;;5065184;28;19927;-76
2022/11/16 12:29:36;;;;;;;;;;;13.50;96.70;;;;;;5061552;28;20015;-76
2022/11/16 12:32:08;;;;;;;;;;;13.50;96.70;;;;;;5067700;28;20393;-77
2022/11/16 12:34:44;;;;;;;;;;;13.50;97.30;;;;;;5064539;28;20302;-76
2022/11/16 12:37:31;;;;;;;;;;;13.50;97.70;;;;;;5069536;28;19923;-75
2022/11/16 12:40:06;;;;;;;;;;;13.50;98.00;;;;;;5049457;28;20420;-78
2022/11/16 12:42:33;;;;;;;;;;;13.50;97.90;;;;;;5071992;28;19916;-77
2022/11/16 12:44:59;;;;;;;;;;;13.50;97.90;;;;;;5065898;28;20387;-76
2022/11/16 12:47:32;;;;;;;;;;;13.40;97.60;;;;;;5071342;28;19917;-76
2022/11/16 12:50:05;;;;;;;;;;;13.40;97.70;;;;;;5066074;28;19968;-75
2022/11/16 12:52:40;;;;;;;;;;;13.30;97.70;;;;;;5068889;28;19916;-76
2022/11/16 12:55:10;;;;;;;;;;;13.30;97.80;;;;;;5073129;28;20011;-76
2022/11/16 12:57:47;;;;;;;;;;;13.20;97.90;;;;;;5070987;28;19923;-76
2022/11/16 13:00:14;;;;;;;;;;;13.10;98.20;;;;;;5070501;28;19920;-75
2022/11/16 13:02:56;;;;;;;;;;;13.00;98.10;;;;;;5084730;28;19923;-77
2022/11/16 13:05:25;;;;;;;;;;;12.90;98.70;;;;;;5068863;28;20011;-75
2022/11/16 13:07:53;;;;;;;;;;;12.80;98.80;;;;;;5061308;28;19940;-74
2022/11/16 13:10:22;;;;;;;;;;;12.70;99.00;;;;;;5067543;28;19966;-76
2022/11/16 13:12:53;;;;;;;;;;;12.60;99.20;;;;;;5072152;28;19921;-77
2022/11/16 13:15:21;;;;;;;;;;;12.40;99.30;;;;;;5071083;28;19976;-75
2022/11/16 13:17:59;;;;;;;;;;;12.40;99.90;;;;;;5069701;28;19995;-77
2022/11/16 13:20:44;;;;;;;;;;;12.30;99.90;;;;;;5063012;28;19912;-75
2022/11/16 13:23:15;;;;;;;;;;;12.20;99.90;;;;;;5071392;28;19942;-77
2022/11/16 13:26:02;;;;;;;;;;;12.20;99.90;;;;;;5070893;28;19999;-77
2022/11/16 13:28:34;;;;;;;;;;;12.10;99.90;;;;;;5069138;28;20011;-74
2022/11/16 13:31:10;;;;;;;;;;;12.00;99.90;;;;;;5064548;28;19962;-80
2022/11/16 13:33:40;;;;;;;;;;;11.90;99.90;;;;;;5052381;28;19912;-78
2022/11/16 13:36:29;;;;;;;;;;;11.80;99.90;;;;;;5066184;28;19912;-78
2022/11/16 13:38:56;;;;;;;;;;;11.80;99.90;;;;;;5056506;28;19921;-79
2022/11/16 13:41:29;;;;;;;;;;;11.70;99.90;;;;;;5070522;28;19920;-80
2022/11/16 13:43:56;;;;;;;;;;;11.70;99.90;;;;;;5065848;28;20325;-78
2022/11/16 13:46:23;;;;;;;;;;;11.70;99.90;;;;;;5070805;28;19917;-77
2022/11/16 13:48:50;;;;;;;;;;;11.70;99.90;;;;;;5067981;28;19920;-79
2022/11/16 13:51:19;;;;;;;;;;;11.60;99.90;;;;;;5070401;28;20401;-77
2022/11/16 13:53:47;;;;;;;;;;;11.60;99.90;;;;;;5060352;28;19923;-78
2022/11/16 13:56:14;;;;;;;;;;;11.50;99.90;;;;;;5063148;28;19920;-80
2022/11/16 13:58:46;;;;;;;;;;;11.50;99.90;;;;;;5071406;28;20398;-79
2022/11/16 14:01:13;;;;;;;;;;;11.50;99.90;;;;;;5066640;28;19919;-79
2022/11/16 14:03:44;;;;;;;;;;;11.50;99.90;;;;;;5071303;28;20047;-80
2022/11/16 14:06:13;;;;;;;;;;;11.40;99.90;;;;;;5069855;28;19913;-79
2022/11/16 14:08:41;;;;;;;;;;;11.30;99.90;;;;;;4942823;28;3673606;-77
2022/11/16 14:11:26;;;;;;;;;;;11.30;99.90;;;;;;5062775;28;20274;-78
2022/11/16 14:13:52;;;;;;;;;;;11.30;99.90;;;;;;5066259;28;19995;-79
2022/11/16 14:16:20;;;;;;;;;;;11.30;99.90;;;;;;5048317;28;19917;-79
2022/11/16 14:18:47;;;;;;;;;;;11.20;99.90;;;;;;5069163;28;20329;-77
2022/11/16 14:21:32;;;;;;;;;;;11.20;99.90;;;;;;5069031;28;19984;-78
2022/11/16 14:23:59;;;;;;;;;;;11.20;99.90;;;;;;5063921;28;20015;-75
2022/11/16 14:26:43;;;;;;;;;;;11.30;99.90;;;;;;5059864;28;19919;-78
2022/11/16 14:29:24;;;;;;;;;;;11.30;99.90;;;;;;5068755;28;20294;-79
2022/11/16 14:31:57;;;;;;;;;;;11.30;99.90;;;;;;5072803;28;20374;-80
2022/11/16 14:34:31;;;;;;;;;;;11.30;99.90;;;;;;5070221;28;19919;-75
2022/11/16 14:36:58;;;;;;;;;;;11.40;99.90;;;;;;5069689;28;19912;-74
2022/11/16 14:39:28;;;;;;;;;;;11.50;99.90;;;;;;5071554;28;20430;-75
2022/11/16 14:41:57;;;;;;;;;;;11.50;99.90;;;;;;5072875;28;20338;-73
2022/11/16 14:44:25;;;;;;;;;;;11.60;99.90;;;;;;5070970;28;19920;-74
2022/11/16 14:46:52;;;;;;;;;;;11.60;99.90;;;;;;5067614;28;19963;-79
2022/11/16 14:49:20;;;;;;;;;;;11.60;99.90;;;;;;5069071;28;19916;-76
2022/11/16 14:51:49;;;;;;;;;;;11.50;99.90;;;;;;5072178;28;19916;-78
2022/11/16 14:54:18;;;;;;;;;;;11.40;99.90;;;;;;5070030;28;19924;-80
2022/11/16 14:57:03;;;;;;;;;;;11.30;99.90;;;;;;5069901;28;19917;-79
2022/11/16 14:59:31;;;;;;;;;;;11.20;99.90;;;;;;5069275;28;19930;-76
2022/11/16 15:02:00;;;;;;;;;;;11.20;99.90;;;;;;5070365;28;20012;-75
2022/11/16 15:04:27;;;;;;;;;;;11.10;99.90;;;;;;5062918;28;19999;-81
2022/11/16 15:06:57;;;;;;;;;;;11.10;99.90;;;;;;5071719;28;19912;-78
2022/11/16 15:09:28;;;;;;;;;;;11.10;99.90;;;;;;5070651;28;19927;-79
2022/11/16 15:14:43;;;;;;;;;;;11.00;99.90;;;;;;5068664;28;19998;-79
2022/11/16 15:17:17;;;;;;;;;;;11.00;99.90;;;;;;5067608;28;20407;-78